TimePST,TemperatureF,Dew PointF,Humidity,Sea Level PressureIn,VisibilityMPH,Wind Direction,Wind SpeedMPH,Gust SpeedMPH,PrecipitationIn,Events,Conditions,WindDirDegrees,DateUTC
12:53 AM,44.1,42.1,93,30.13,3.0,Calm,Calm,-,N/A,,Clear,0,2012-11-21 08:53:00
1:53 AM,43.0,41.0,93,30.12,4.0,Calm,Calm,-,N/A,,Clear,0,2012-11-21 09:53:00
2:53 AM,42.1,41.0,96,30.12,5.0,Calm,Calm,-,N/A,,Clear,0,2012-11-21 10:53:00
3:53 AM,43.0,41.0,93,30.12,4.0,Calm,Calm,-,N/A,,Clear,0,2012-11-21 11:53:00
4:53 AM,42.1,39.9,92,30.13,4.0,Calm,Calm,-,N/A,,Clear,0,2012-11-21 12:53:00
5:53 AM,43.0,39.9,89,30.14,6.0,Calm,Calm,-,N/A,,Clear,0,2012-11-21 13:53:00
6:53 AM,42.1,39.0,89,30.16,4.0,East,3.5,-,N/A,,Clear,90,2012-11-21 14:53:00
7:53 AM,46.9,43.0,86,30.18,6.0,ESE,4.6,-,N/A,,Partly Cloudy,110,2012-11-21 15:53:00
8:53 AM,54.0,46.0,75,30.19,7.0,Calm,Calm,-,N/A,,Mostly Cloudy,0,2012-11-21 16:53:00
9:53 AM,60.1,48.0,64,30.19,8.0,SSE,4.6,-,N/A,,Clear,160,2012-11-21 17:53:00
10:53 AM,64.0,48.0,56,30.17,8.0,Variable,5.8,-,N/A,,Partly Cloudy,0,2012-11-21 18:53:00
11:53 AM,68.0,46.9,47,30.14,8.0,Variable,5.8,-,N/A,,Partly Cloudy,0,2012-11-21 19:53:00
12:53 PM,69.1,46.9,45,30.13,10.0,Calm,Calm,-,N/A,,Mostly Cloudy,0,2012-11-21 20:53:00
1:53 PM,71.1,46.0,41,30.12,9.0,Calm,Calm,-,N/A,,Mostly Cloudy,0,2012-11-21 21:53:00
2:53 PM,70.0,46.9,44,30.11,4.0,WNW,9.2,-,N/A,,Haze,300,2012-11-21 22:53:00
3:23 PM,71.6,46.4,41,30.10,2.0,NNW,10.4,-,N/A,,Haze,330,2012-11-21 23:23:00
3:42 PM,71.6,46.4,41,30.10,8.0,NW,11.5,-,N/A,,Clear,320,2012-11-21 23:42:00
3:53 PM,70.0,46.0,42,30.10,9.0,NW,9.2,-,N/A,,Clear,320,2012-11-21 23:53:00
4:53 PM,64.9,46.9,52,30.09,7.0,NW,11.5,-,N/A,,Clear,320,2012-11-22 00:53:00
5:53 PM,62.1,50.0,65,30.11,8.0,NNW,9.2,-,N/A,,Clear,330,2012-11-22 01:53:00
6:53 PM,57.9,48.9,72,30.13,7.0,North,4.6,-,N/A,,Clear,360,2012-11-22 02:53:00
7:53 PM,57.0,51.1,81,30.14,7.0,NW,8.1,-,N/A,,Clear,320,2012-11-22 03:53:00
8:53 PM,55.0,51.1,86,30.15,6.0,NW,5.8,-,N/A,,Clear,320,2012-11-22 04:53:00
9:53 PM,54.0,50.0,86,30.17,6.0,NW,8.1,-,N/A,,Clear,320,2012-11-22 05:53:00
10:53 PM,53.1,50.0,89,30.17,7.0,NW,6.9,-,N/A,,Clear,310,2012-11-22 06:53:00
11:53 PM,51.1,48.0,89,30.18,6.0,NNW,4.6,-,N/A,,Clear,340,2012-11-22 07:53:00